sensor_id;sensor_type;location;lat;lon;timestamp;P1;durP1;ratioP1;P2;durP2;ratioP2
1885;SDS011;943;51.568;6.998;2022-12-18T00:02:04;69.00;;;38.40;;
1885;SDS011;943;51.568;6.998;2022-12-18T00:04:31;63.40;;;38.83;;
1885;SDS011;943;51.568;6.998;2022-12-18T00:07:00;57.23;;;37.83;;
1885;SDS011;943;51.568;6.998;2022-12-18T00:09:28;70.37;;;38.73;;
1885;SDS011;943;51.568;6.998;2022-12-18T00:12:06;73.20;;;42.37;;
1885;SDS011;943;51.568;6.998;2022-12-18T00:14:44;72.17;;;40.47;;
1885;SDS011;943;51.568;6.998;2022-12-18T00:17:11;65.83;;;41.03;;
1885;SDS011;943;51.568;6.998;2022-12-18T00:19:39;63.17;;;38.93;;
1885;SDS011;943;51.568;6.998;2022-12-18T00:22:07;55.73;;;35.70;;
1885;SDS011;943;51.568;6.998;2022-12-18T00:24:34;71.80;;;39.80;;
1885;SDS011;943;51.568;6.998;2022-12-18T00:27:02;64.53;;;40.20;;
1885;SDS011;943;51.568;6.998;2022-12-18T00:29:30;61.20;;;38.67;;
1885;SDS011;943;51.568;6.998;2022-12-18T00:31:57;58.50;;;39.37;;
1885;SDS011;943;51.568;6.998;2022-12-18T00:34:25;70.47;;;43.57;;
1885;SDS011;943;51.568;6.998;2022-12-18T00:36:53;63.60;;;40.10;;
1885;SDS011;943;51.568;6.998;2022-12-18T00:39:21;69.70;;;37.50;;
1885;SDS011;943;51.568;6.998;2022-12-18T00:41:50;66.07;;;39.43;;
1885;SDS011;943;51.568;6.998;2022-12-18T00:44:36;57.33;;;34.53;;
1885;SDS011;943;51.568;6.998;2022-12-18T00:47:04;56.10;;;35.30;;
1885;SDS011;943;51.568;6.998;2022-12-18T00:49:33;59.40;;;35.73;;
1885;SDS011;943;51.568;6.998;2022-12-18T00:52:07;60.00;;;35.80;;
1885;SDS011;943;51.568;6.998;2022-12-18T00:54:34;64.07;;;36.67;;
1885;SDS011;943;51.568;6.998;2022-12-18T00:57:02;62.83;;;38.20;;
1885;SDS011;943;51.568;6.998;2022-12-18T00:59:33;57.70;;;34.40;;
1885;SDS011;943;51.568;6.998;2022-12-18T01:02:06;60.37;;;35.43;;
1885;SDS011;943;51.568;6.998;2022-12-18T01:04:34;58.80;;;35.77;;
1885;SDS011;943;51.568;6.998;2022-12-18T01:07:02;65.53;;;35.47;;
1885;SDS011;943;51.568;6.998;2022-12-18T01:09:31;56.33;;;33.20;;
1885;SDS011;943;51.568;6.998;2022-12-18T01:11:59;57.70;;;35.77;;
1885;SDS011;943;51.568;6.998;2022-12-18T01:14:29;60.90;;;36.67;;
1885;SDS011;943;51.568;6.998;2022-12-18T01:16:58;53.00;;;33.87;;
1885;SDS011;943;51.568;6.998;2022-12-18T01:19:25;57.10;;;31.83;;
1885;SDS011;943;51.568;6.998;2022-12-18T01:21:53;50.17;;;32.80;;
1885;SDS011;943;51.568;6.998;2022-12-18T01:24:21;59.80;;;34.77;;
1885;SDS011;943;51.568;6.998;2022-12-18T01:26:49;55.03;;;33.43;;
1885;SDS011;943;51.568;6.998;2022-12-18T01:29:16;50.80;;;31.17;;
1885;SDS011;943;51.568;6.998;2022-12-18T01:31:44;62.70;;;34.37;;
1885;SDS011;943;51.568;6.998;2022-12-18T01:34:11;53.23;;;32.63;;
1885;SDS011;943;51.568;6.998;2022-12-18T01:36:40;51.37;;;32.10;;
1885;SDS011;943;51.568;6.998;2022-12-18T01:39:11;56.80;;;30.47;;
1885;SDS011;943;51.568;6.998;2022-12-18T01:41:41;52.60;;;32.20;;
1885;SDS011;943;51.568;6.998;2022-12-18T01:50:36;55.13;;;29.50;;
1885;SDS011;943;51.568;6.998;2022-12-18T01:53:14;57.63;;;31.23;;
1885;SDS011;943;51.568;6.998;2022-12-18T01:55:53;50.77;;;30.80;;
1885;SDS011;943;51.568;6.998;2022-12-18T02:01:32;46.27;;;26.77;;
1885;SDS011;943;51.568;6.998;2022-12-18T02:04:21;50.67;;;28.30;;
1885;SDS011;943;51.568;6.998;2022-12-18T02:07:06;45.47;;;26.93;;
1885;SDS011;943;51.568;6.998;2022-12-18T02:13:18;51.53;;;28.63;;
1885;SDS011;943;51.568;6.998;2022-12-18T02:19:39;70.30;;;32.93;;
1885;SDS011;943;51.568;6.998;2022-12-18T02:22:38;51.17;;;29.00;;
1885;SDS011;943;51.568;6.998;2022-12-18T02:29:18;46.60;;;27.50;;
1885;SDS011;943;51.568;6.998;2022-12-18T02:32:38;44.10;;;27.43;;
1885;SDS011;943;51.568;6.998;2022-12-18T02:35:20;43.83;;;25.07;;
1885;SDS011;943;51.568;6.998;2022-12-18T02:37:58;47.23;;;25.83;;
1885;SDS011;943;51.568;6.998;2022-12-18T02:40:32;47.23;;;27.00;;
1885;SDS011;943;51.568;6.998;2022-12-18T02:43:06;41.10;;;26.57;;
1885;SDS011;943;51.568;6.998;2022-12-18T02:45:53;50.63;;;26.90;;
1885;SDS011;943;51.568;6.998;2022-12-18T02:48:31;38.00;;;24.37;;
1885;SDS011;943;51.568;6.998;2022-12-18T02:54:16;40.47;;;23.13;;
1885;SDS011;943;51.568;6.998;2022-12-18T02:57:37;35.17;;;20.83;;
1885;SDS011;943;51.568;6.998;2022-12-18T03:01:05;31.93;;;21.97;;
1885;SDS011;943;51.568;6.998;2022-12-18T03:04:37;32.23;;;20.20;;
1885;SDS011;943;51.568;6.998;2022-12-18T03:07:23;36.83;;;20.17;;
1885;SDS011;943;51.568;6.998;2022-12-18T03:10:27;29.27;;;17.80;;
1885;SDS011;943;51.568;6.998;2022-12-18T03:13:08;42.17;;;19.40;;
1885;SDS011;943;51.568;6.998;2022-12-18T03:15:50;29.07;;;18.20;;
1885;SDS011;943;51.568;6.998;2022-12-18T03:18:28;31.13;;;18.80;;
1885;SDS011;943;51.568;6.998;2022-12-18T03:21:15;29.27;;;18.60;;
1885;SDS011;943;51.568;6.998;2022-12-18T03:23:57;31.17;;;16.73;;
1885;SDS011;943;51.568;6.998;2022-12-18T03:26:30;25.13;;;17.10;;
1885;SDS011;943;51.568;6.998;2022-12-18T03:29:07;30.70;;;18.10;;
1885;SDS011;943;51.568;6.998;2022-12-18T03:31:58;29.63;;;17.70;;
1885;SDS011;943;51.568;6.998;2022-12-18T03:34:38;21.73;;;13.90;;
1885;SDS011;943;51.568;6.998;2022-12-18T03:37:12;23.70;;;15.73;;
1885;SDS011;943;51.568;6.998;2022-12-18T03:39:41;30.00;;;17.57;;
1885;SDS011;943;51.568;6.998;2022-12-18T03:42:21;30.57;;;17.33;;
1885;SDS011;943;51.568;6.998;2022-12-18T03:45:24;30.23;;;15.83;;
1885;SDS011;943;51.568;6.998;2022-12-18T03:51:14;25.60;;;16.90;;
1885;SDS011;943;51.568;6.998;2022-12-18T03:54:24;27.70;;;14.47;;
1885;SDS011;943;51.568;6.998;2022-12-18T03:57:07;25.67;;;16.17;;
1885;SDS011;943;51.568;6.998;2022-12-18T04:00:00;26.07;;;15.37;;
1885;SDS011;943;51.568;6.998;2022-12-18T04:02:58;22.70;;;16.60;;
1885;SDS011;943;51.568;6.998;2022-12-18T04:05:38;27.37;;;13.80;;
1885;SDS011;943;51.568;6.998;2022-12-18T04:08:11;25.13;;;14.70;;
1885;SDS011;943;51.568;6.998;2022-12-18T04:10:47;23.93;;;14.70;;
1885;SDS011;943;51.568;6.998;2022-12-18T04:13:27;24.20;;;16.50;;
1885;SDS011;943;51.568;6.998;2022-12-18T04:16:06;22.30;;;14.77;;
1885;SDS011;943;51.568;6.998;2022-12-18T04:18:39;27.87;;;16.20;;
1885;SDS011;943;51.568;6.998;2022-12-18T04:21:07;21.43;;;13.70;;
1885;SDS011;943;51.568;6.998;2022-12-18T04:23:36;27.93;;;14.40;;
1885;SDS011;943;51.568;6.998;2022-12-18T04:26:06;26.80;;;15.90;;
1885;SDS011;943;51.568;6.998;2022-12-18T04:28:52;24.60;;;15.20;;
1885;SDS011;943;51.568;6.998;2022-12-18T04:31:20;18.80;;;14.17;;
1885;SDS011;943;51.568;6.998;2022-12-18T04:33:48;22.50;;;14.60;;
1885;SDS011;943;51.568;6.998;2022-12-18T04:36:16;25.87;;;15.50;;
1885;SDS011;943;51.568;6.998;2022-12-18T04:38:45;23.70;;;14.87;;
1885;SDS011;943;51.568;6.998;2022-12-18T04:41:15;20.97;;;13.70;;
1885;SDS011;943;51.568;6.998;2022-12-18T04:43:45;20.47;;;13.53;;
1885;SDS011;943;51.568;6.998;2022-12-18T04:46:13;22.73;;;14.30;;
1885;SDS011;943;51.568;6.998;2022-12-18T04:48:41;18.33;;;12.40;;
1885;SDS011;943;51.568;6.998;2022-12-18T04:51:12;20.97;;;14.33;;
1885;SDS011;943;51.568;6.998;2022-12-18T04:53:40;21.17;;;14.00;;
1885;SDS011;943;51.568;6.998;2022-12-18T04:56:09;23.27;;;13.23;;
1885;SDS011;943;51.568;6.998;2022-12-18T04:58:43;27.70;;;15.77;;
1885;SDS011;943;51.568;6.998;2022-12-18T05:01:12;21.40;;;13.43;;
1885;SDS011;943;51.568;6.998;2022-12-18T05:03:44;20.50;;;12.90;;
1885;SDS011;943;51.568;6.998;2022-12-18T05:06:12;22.60;;;13.93;;
1885;SDS011;943;51.568;6.998;2022-12-18T05:08:43;21.27;;;14.20;;
1885;SDS011;943;51.568;6.998;2022-12-18T05:11:12;24.83;;;13.40;;
1885;SDS011;943;51.568;6.998;2022-12-18T05:13:45;21.40;;;13.27;;
1885;SDS011;943;51.568;6.998;2022-12-18T05:16:14;26.13;;;16.23;;
1885;SDS011;943;51.568;6.998;2022-12-18T05:18:42;26.20;;;15.77;;
1885;SDS011;943;51.568;6.998;2022-12-18T05:21:10;21.83;;;14.67;;
1885;SDS011;943;51.568;6.998;2022-12-18T05:23:38;23.47;;;15.67;;
1885;SDS011;943;51.568;6.998;2022-12-18T05:26:07;25.57;;;16.60;;
1885;SDS011;943;51.568;6.998;2022-12-18T05:28:35;26.67;;;16.27;;
1885;SDS011;943;51.568;6.998;2022-12-18T05:31:03;23.57;;;16.30;;
1885;SDS011;943;51.568;6.998;2022-12-18T05:33:33;23.77;;;13.83;;
1885;SDS011;943;51.568;6.998;2022-12-18T05:36:03;25.07;;;16.57;;
1885;SDS011;943;51.568;6.998;2022-12-18T05:38:36;25.30;;;15.90;;
1885;SDS011;943;51.568;6.998;2022-12-18T05:41:06;27.20;;;16.50;;
1885;SDS011;943;51.568;6.998;2022-12-18T05:43:36;20.60;;;13.33;;
1885;SDS011;943;51.568;6.998;2022-12-18T05:46:11;21.43;;;14.50;;
1885;SDS011;943;51.568;6.998;2022-12-18T05:48:44;20.83;;;14.97;;
1885;SDS011;943;51.568;6.998;2022-12-18T05:51:14;24.10;;;15.00;;
1885;SDS011;943;51.568;6.998;2022-12-18T05:53:47;22.70;;;13.63;;
1885;SDS011;943;51.568;6.998;2022-12-18T05:56:18;26.67;;;14.67;;
1885;SDS011;943;51.568;6.998;2022-12-18T05:58:52;27.57;;;14.00;;
1885;SDS011;943;51.568;6.998;2022-12-18T06:01:25;19.87;;;12.77;;
1885;SDS011;943;51.568;6.998;2022-12-18T06:03:53;22.13;;;12.23;;
1885;SDS011;943;51.568;6.998;2022-12-18T06:06:23;24.43;;;13.97;;
1885;SDS011;943;51.568;6.998;2022-12-18T06:08:54;20.87;;;12.70;;
1885;SDS011;943;51.568;6.998;2022-12-18T06:11:24;21.83;;;13.40;;
1885;SDS011;943;51.568;6.998;2022-12-18T06:13:54;21.10;;;13.20;;
1885;SDS011;943;51.568;6.998;2022-12-18T06:16:26;29.80;;;14.03;;
1885;SDS011;943;51.568;6.998;2022-12-18T06:18:57;23.07;;;13.97;;
1885;SDS011;943;51.568;6.998;2022-12-18T06:21:27;28.47;;;14.13;;
1885;SDS011;943;51.568;6.998;2022-12-18T06:23:57;23.30;;;13.93;;
1885;SDS011;943;51.568;6.998;2022-12-18T06:26:26;22.53;;;14.30;;
1885;SDS011;943;51.568;6.998;2022-12-18T06:28:54;19.97;;;11.93;;
1885;SDS011;943;51.568;6.998;2022-12-18T06:31:22;22.60;;;13.73;;
1885;SDS011;943;51.568;6.998;2022-12-18T06:33:51;24.47;;;14.80;;
1885;SDS011;943;51.568;6.998;2022-12-18T06:36:19;23.80;;;12.27;;
1885;SDS011;943;51.568;6.998;2022-12-18T06:38:47;20.70;;;12.90;;
1885;SDS011;943;51.568;6.998;2022-12-18T06:41:17;23.43;;;14.83;;
1885;SDS011;943;51.568;6.998;2022-12-18T06:43:49;20.60;;;12.50;;
1885;SDS011;943;51.568;6.998;2022-12-18T06:46:21;22.50;;;13.63;;
1885;SDS011;943;51.568;6.998;2022-12-18T06:48:49;19.10;;;12.70;;
1885;SDS011;943;51.568;6.998;2022-12-18T06:51:18;27.33;;;13.60;;
1885;SDS011;943;51.568;6.998;2022-12-18T06:53:49;22.27;;;14.50;;
1885;SDS011;943;51.568;6.998;2022-12-18T06:56:17;17.70;;;11.93;;
1885;SDS011;943;51.568;6.998;2022-12-18T06:58:45;20.57;;;13.80;;
1885;SDS011;943;51.568;6.998;2022-12-18T07:01:13;15.87;;;10.83;;
1885;SDS011;943;51.568;6.998;2022-12-18T07:03:41;18.93;;;13.53;;
1885;SDS011;943;51.568;6.998;2022-12-18T07:06:14;20.90;;;12.50;;
1885;SDS011;943;51.568;6.998;2022-12-18T07:08:46;15.33;;;11.97;;
1885;SDS011;943;51.568;6.998;2022-12-18T07:11:17;20.50;;;13.13;;
1885;SDS011;943;51.568;6.998;2022-12-18T07:13:46;17.83;;;12.13;;
1885;SDS011;943;51.568;6.998;2022-12-18T07:16:14;18.97;;;12.80;;
1885;SDS011;943;51.568;6.998;2022-12-18T07:18:51;17.13;;;12.70;;
1885;SDS011;943;51.568;6.998;2022-12-18T07:21:21;22.37;;;13.77;;
1885;SDS011;943;51.568;6.998;2022-12-18T07:23:51;17.80;;;12.20;;
1885;SDS011;943;51.568;6.998;2022-12-18T07:26:20;22.43;;;13.80;;
1885;SDS011;943;51.568;6.998;2022-12-18T07:28:49;21.90;;;14.00;;
1885;SDS011;943;51.568;6.998;2022-12-18T07:31:21;22.70;;;14.03;;
1885;SDS011;943;51.568;6.998;2022-12-18T07:33:50;21.50;;;14.60;;
1885;SDS011;943;51.568;6.998;2022-12-18T07:36:19;18.53;;;13.07;;
1885;SDS011;943;51.568;6.998;2022-12-18T07:38:47;20.10;;;13.20;;
1885;SDS011;943;51.568;6.998;2022-12-18T07:41:18;20.10;;;12.40;;
1885;SDS011;943;51.568;6.998;2022-12-18T07:43:46;23.80;;;13.63;;
1885;SDS011;943;51.568;6.998;2022-12-18T07:46:15;22.43;;;14.47;;
1885;SDS011;943;51.568;6.998;2022-12-18T07:48:46;20.20;;;12.57;;
1885;SDS011;943;51.568;6.998;2022-12-18T07:51:15;21.40;;;12.50;;
1885;SDS011;943;51.568;6.998;2022-12-18T07:53:45;21.50;;;14.17;;
1885;SDS011;943;51.568;6.998;2022-12-18T07:56:17;20.20;;;13.50;;
1885;SDS011;943;51.568;6.998;2022-12-18T07:58:54;22.07;;;13.33;;
1885;SDS011;943;51.568;6.998;2022-12-18T08:01:23;23.83;;;14.90;;
1885;SDS011;943;51.568;6.998;2022-12-18T08:03:51;17.73;;;13.13;;
1885;SDS011;943;51.568;6.998;2022-12-18T08:06:19;20.60;;;13.70;;
1885;SDS011;943;51.568;6.998;2022-12-18T08:08:53;19.63;;;13.23;;
1885;SDS011;943;51.568;6.998;2022-12-18T08:11:24;22.40;;;14.80;;
1885;SDS011;943;51.568;6.998;2022-12-18T08:13:55;22.67;;;14.57;;
1885;SDS011;943;51.568;6.998;2022-12-18T08:16:24;29.23;;;14.50;;
1885;SDS011;943;51.568;6.998;2022-12-18T08:18:53;23.67;;;15.70;;
1885;SDS011;943;51.568;6.998;2022-12-18T08:21:22;23.30;;;14.30;;
1885;SDS011;943;51.568;6.998;2022-12-18T08:23:56;22.00;;;13.67;;
1885;SDS011;943;51.568;6.998;2022-12-18T08:26:28;21.87;;;14.60;;
1885;SDS011;943;51.568;6.998;2022-12-18T08:28:58;18.43;;;12.90;;
1885;SDS011;943;51.568;6.998;2022-12-18T08:31:28;18.77;;;12.40;;
1885;SDS011;943;51.568;6.998;2022-12-18T08:33:57;18.83;;;12.60;;
1885;SDS011;943;51.568;6.998;2022-12-18T08:36:26;21.90;;;12.73;;
1885;SDS011;943;51.568;6.998;2022-12-18T08:38:55;19.90;;;13.17;;
1885;SDS011;943;51.568;6.998;2022-12-18T08:41:24;16.60;;;9.83;;
1885;SDS011;943;51.568;6.998;2022-12-18T08:43:53;16.53;;;10.00;;
1885;SDS011;943;51.568;6.998;2022-12-18T08:46:50;16.73;;;10.90;;
1885;SDS011;943;51.568;6.998;2022-12-18T08:49:17;16.50;;;10.10;;
1885;SDS011;943;51.568;6.998;2022-12-18T08:51:45;16.37;;;9.80;;
1885;SDS011;943;51.568;6.998;2022-12-18T08:54:13;14.27;;;8.47;;
1885;SDS011;943;51.568;6.998;2022-12-18T08:56:40;11.33;;;7.70;;
1885;SDS011;943;51.568;6.998;2022-12-18T08:59:08;15.20;;;9.93;;
1885;SDS011;943;51.568;6.998;2022-12-18T09:01:44;10.10;;;8.23;;
1885;SDS011;943;51.568;6.998;2022-12-18T09:04:14;11.10;;;7.47;;
1885;SDS011;943;51.568;6.998;2022-12-18T09:06:42;11.93;;;8.33;;
1885;SDS011;943;51.568;6.998;2022-12-18T09:09:10;14.40;;;8.33;;
1885;SDS011;943;51.568;6.998;2022-12-18T09:11:38;13.33;;;7.93;;
1885;SDS011;943;51.568;6.998;2022-12-18T09:14:06;11.93;;;9.77;;
1885;SDS011;943;51.568;6.998;2022-12-18T09:16:36;13.80;;;8.60;;
1885;SDS011;943;51.568;6.998;2022-12-18T09:19:04;24.93;;;12.50;;
1885;SDS011;943;51.568;6.998;2022-12-18T09:21:33;19.93;;;12.00;;
1885;SDS011;943;51.568;6.998;2022-12-18T09:24:03;34.20;;;21.87;;
1885;SDS011;943;51.568;6.998;2022-12-18T09:26:34;27.53;;;18.50;;
1885;SDS011;943;51.568;6.998;2022-12-18T09:29:04;17.50;;;10.10;;
1885;SDS011;943;51.568;6.998;2022-12-18T09:31:33;17.50;;;11.67;;
1885;SDS011;943;51.568;6.998;2022-12-18T09:34:02;14.00;;;9.40;;
1885;SDS011;943;51.568;6.998;2022-12-18T09:36:30;13.80;;;9.47;;
1885;SDS011;943;51.568;6.998;2022-12-18T09:38:58;16.63;;;11.37;;
1885;SDS011;943;51.568;6.998;2022-12-18T09:44:35;17.37;;;12.83;;
1885;SDS011;943;51.568;6.998;2022-12-18T09:50:13;18.43;;;13.90;;
1885;SDS011;943;51.568;6.998;2022-12-18T09:53:06;18.33;;;13.87;;
1885;SDS011;943;51.568;6.998;2022-12-18T09:55:51;20.30;;;16.07;;
1885;SDS011;943;51.568;6.998;2022-12-18T10:01:22;18.10;;;11.30;;
1885;SDS011;943;51.568;6.998;2022-12-18T10:04:04;17.97;;;13.93;;
1885;SDS011;943;51.568;6.998;2022-12-18T10:06:39;21.37;;;12.57;;
1885;SDS011;943;51.568;6.998;2022-12-18T10:10:04;19.07;;;12.20;;
1885;SDS011;943;51.568;6.998;2022-12-18T10:19:35;16.20;;;11.37;;
1885;SDS011;943;51.568;6.998;2022-12-18T10:25:39;16.67;;;11.03;;
1885;SDS011;943;51.568;6.998;2022-12-18T10:28:14;19.70;;;12.77;;
1885;SDS011;943;51.568;6.998;2022-12-18T10:30:45;17.40;;;12.30;;
1885;SDS011;943;51.568;6.998;2022-12-18T10:33:16;23.33;;;13.43;;
1885;SDS011;943;51.568;6.998;2022-12-18T10:35:50;21.57;;;13.37;;
1885;SDS011;943;51.568;6.998;2022-12-18T10:38:27;17.17;;;12.20;;
1885;SDS011;943;51.568;6.998;2022-12-18T10:41:06;19.10;;;11.20;;
1885;SDS011;943;51.568;6.998;2022-12-18T10:44:10;17.10;;;11.83;;
1885;SDS011;943;51.568;6.998;2022-12-18T10:46:50;15.87;;;11.57;;
1885;SDS011;943;51.568;6.998;2022-12-18T10:49:37;18.00;;;11.70;;
1885;SDS011;943;51.568;6.998;2022-12-18T10:52:22;19.13;;;12.97;;
1885;SDS011;943;51.568;6.998;2022-12-18T10:54:54;21.73;;;13.10;;
1885;SDS011;943;51.568;6.998;2022-12-18T10:57:37;19.33;;;13.33;;
1885;SDS011;943;51.568;6.998;2022-12-18T11:02:52;19.93;;;15.77;;
1885;SDS011;943;51.568;6.998;2022-12-18T11:05:24;17.53;;;12.73;;
1885;SDS011;943;51.568;6.998;2022-12-18T11:07:59;23.33;;;14.17;;
1885;SDS011;943;51.568;6.998;2022-12-18T11:10:33;20.53;;;13.00;;
1885;SDS011;943;51.568;6.998;2022-12-18T11:13:11;21.03;;;13.83;;
1885;SDS011;943;51.568;6.998;2022-12-18T11:15:48;18.13;;;11.40;;
1885;SDS011;943;51.568;6.998;2022-12-18T11:18:38;16.10;;;11.80;;
1885;SDS011;943;51.568;6.998;2022-12-18T11:23:52;22.13;;;13.20;;
1885;SDS011;943;51.568;6.998;2022-12-18T11:26:21;24.40;;;13.23;;
1885;SDS011;943;51.568;6.998;2022-12-18T11:29:09;13.67;;;9.80;;
1885;SDS011;943;51.568;6.998;2022-12-18T11:31:50;16.27;;;12.60;;
1885;SDS011;943;51.568;6.998;2022-12-18T11:34:27;15.23;;;11.03;;
1885;SDS011;943;51.568;6.998;2022-12-18T11:36:59;21.17;;;14.03;;
1885;SDS011;943;51.568;6.998;2022-12-18T11:39:31;14.87;;;10.70;;
1885;SDS011;943;51.568;6.998;2022-12-18T11:45:50;17.10;;;10.80;;
1885;SDS011;943;51.568;6.998;2022-12-18T11:48:45;16.50;;;11.10;;
1885;SDS011;943;51.568;6.998;2022-12-18T11:51:43;20.43;;;12.87;;
1885;SDS011;943;51.568;6.998;2022-12-18T11:55:00;22.93;;;14.10;;
1885;SDS011;943;51.568;6.998;2022-12-18T12:20:23;17.10;;;11.73;;
1885;SDS011;943;51.568;6.998;2022-12-18T12:27:29;16.80;;;10.80;;
1885;SDS011;943;51.568;6.998;2022-12-18T12:30:48;17.60;;;12.10;;
1885;SDS011;943;51.568;6.998;2022-12-18T12:37:11;16.90;;;12.83;;
1885;SDS011;943;51.568;6.998;2022-12-18T12:40:11;15.87;;;13.90;;
1885;SDS011;943;51.568;6.998;2022-12-18T12:43:19;19.40;;;13.43;;
1885;SDS011;943;51.568;6.998;2022-12-18T12:46:17;22.83;;;12.97;;
1885;SDS011;943;51.568;6.998;2022-12-18T12:51:28;19.67;;;13.03;;
1885;SDS011;943;51.568;6.998;2022-12-18T12:54:11;15.73;;;11.87;;
1885;SDS011;943;51.568;6.998;2022-12-18T12:56:57;18.70;;;11.83;;
1885;SDS011;943;51.568;6.998;2022-12-18T13:00:05;18.03;;;12.13;;
1885;SDS011;943;51.568;6.998;2022-12-18T13:05:52;19.83;;;12.40;;
1885;SDS011;943;51.568;6.998;2022-12-18T13:08:34;16.27;;;13.40;;
1885;SDS011;943;51.568;6.998;2022-12-18T13:11:46;24.57;;;15.00;;
1885;SDS011;943;51.568;6.998;2022-12-18T13:14:34;18.87;;;14.00;;
1885;SDS011;943;51.568;6.998;2022-12-18T13:25:50;23.70;;;15.53;;
1885;SDS011;943;51.568;6.998;2022-12-18T13:30:47;24.57;;;14.27;;
1885;SDS011;943;51.568;6.998;2022-12-18T13:33:36;26.03;;;14.97;;
1885;SDS011;943;51.568;6.998;2022-12-18T13:36:33;20.70;;;14.33;;
1885;SDS011;943;51.568;6.998;2022-12-18T13:41:51;25.30;;;17.00;;
1885;SDS011;943;51.568;6.998;2022-12-18T13:45:01;39.77;;;18.77;;
1885;SDS011;943;51.568;6.998;2022-12-18T13:48:17;23.30;;;17.60;;
1885;SDS011;943;51.568;6.998;2022-12-18T13:51:08;24.83;;;18.23;;
1885;SDS011;943;51.568;6.998;2022-12-18T13:53:44;27.80;;;16.67;;
1885;SDS011;943;51.568;6.998;2022-12-18T13:56:51;26.77;;;16.43;;
1885;SDS011;943;51.568;6.998;2022-12-18T13:59:20;31.43;;;18.33;;
1885;SDS011;943;51.568;6.998;2022-12-18T14:02:11;34.73;;;19.93;;
1885;SDS011;943;51.568;6.998;2022-12-18T14:04:48;28.77;;;18.10;;
1885;SDS011;943;51.568;6.998;2022-12-18T14:07:27;29.30;;;17.47;;
1885;SDS011;943;51.568;6.998;2022-12-18T14:10:11;26.53;;;16.93;;
1885;SDS011;943;51.568;6.998;2022-12-18T14:13:04;32.33;;;19.57;;
1885;SDS011;943;51.568;6.998;2022-12-18T14:15:43;25.63;;;16.60;;
1885;SDS011;943;51.568;6.998;2022-12-18T14:18:23;23.57;;;15.10;;
1885;SDS011;943;51.568;6.998;2022-12-18T14:26:45;17.90;;;11.07;;
1885;SDS011;943;51.568;6.998;2022-12-18T14:29:24;16.90;;;11.87;;
1885;SDS011;943;51.568;6.998;2022-12-18T14:32:05;20.30;;;12.20;;
1885;SDS011;943;51.568;6.998;2022-12-18T14:37:22;23.03;;;14.27;;
1885;SDS011;943;51.568;6.998;2022-12-18T14:42:36;16.67;;;11.40;;
1885;SDS011;943;51.568;6.998;2022-12-18T14:51:15;18.13;;;11.60;;
1885;SDS011;943;51.568;6.998;2022-12-18T14:53:59;15.50;;;10.70;;
1885;SDS011;943;51.568;6.998;2022-12-18T14:56:37;18.80;;;10.13;;
1885;SDS011;943;51.568;6.998;2022-12-18T14:59:22;17.33;;;9.70;;
1885;SDS011;943;51.568;6.998;2022-12-18T15:04:45;17.63;;;9.77;;
1885;SDS011;943;51.568;6.998;2022-12-18T15:07:15;15.30;;;10.40;;
1885;SDS011;943;51.568;6.998;2022-12-18T15:13:06;17.07;;;9.23;;
1885;SDS011;943;51.568;6.998;2022-12-18T15:15:49;16.60;;;9.80;;
1885;SDS011;943;51.568;6.998;2022-12-18T15:18:29;15.27;;;9.60;;
1885;SDS011;943;51.568;6.998;2022-12-18T15:21:11;12.97;;;9.60;;
1885;SDS011;943;51.568;6.998;2022-12-18T15:23:49;18.57;;;9.77;;
1885;SDS011;943;51.568;6.998;2022-12-18T15:26:20;15.00;;;9.93;;
1885;SDS011;943;51.568;6.998;2022-12-18T15:36:46;16.80;;;10.07;;
1885;SDS011;943;51.568;6.998;2022-12-18T15:39:14;17.93;;;10.57;;
1885;SDS011;943;51.568;6.998;2022-12-18T15:41:42;19.70;;;10.07;;
1885;SDS011;943;51.568;6.998;2022-12-18T15:44:30;13.33;;;10.20;;
1885;SDS011;943;51.568;6.998;2022-12-18T15:46:58;18.90;;;9.87;;
1885;SDS011;943;51.568;6.998;2022-12-18T15:49:26;17.50;;;11.57;;
1885;SDS011;943;51.568;6.998;2022-12-18T15:51:56;20.63;;;13.80;;
1885;SDS011;943;51.568;6.998;2022-12-18T15:54:28;16.70;;;11.27;;
1885;SDS011;943;51.568;6.998;2022-12-18T15:57:14;17.20;;;10.17;;
1885;SDS011;943;51.568;6.998;2022-12-18T15:59:51;18.40;;;11.07;;
1885;SDS011;943;51.568;6.998;2022-12-18T16:02:24;15.93;;;10.57;;
1885;SDS011;943;51.568;6.998;2022-12-18T16:04:54;17.53;;;10.60;;
1885;SDS011;943;51.568;6.998;2022-12-18T16:07:23;17.53;;;11.67;;
1885;SDS011;943;51.568;6.998;2022-12-18T16:09:55;16.43;;;11.03;;
1885;SDS011;943;51.568;6.998;2022-12-18T16:12:27;19.40;;;11.47;;
1885;SDS011;943;51.568;6.998;2022-12-18T16:14:55;19.60;;;12.17;;
1885;SDS011;943;51.568;6.998;2022-12-18T16:17:22;19.20;;;12.27;;
1885;SDS011;943;51.568;6.998;2022-12-18T16:19:50;17.63;;;11.73;;
1885;SDS011;943;51.568;6.998;2022-12-18T16:22:19;21.63;;;12.70;;
1885;SDS011;943;51.568;6.998;2022-12-18T16:24:54;20.93;;;13.67;;
1885;SDS011;943;51.568;6.998;2022-12-18T16:27:24;20.73;;;13.43;;
1885;SDS011;943;51.568;6.998;2022-12-18T16:29:52;16.50;;;11.73;;
1885;SDS011;943;51.568;6.998;2022-12-18T16:32:20;20.47;;;13.53;;
1885;SDS011;943;51.568;6.998;2022-12-18T16:34:50;23.13;;;15.03;;
1885;SDS011;943;51.568;6.998;2022-12-18T16:37:17;18.50;;;13.27;;
1885;SDS011;943;51.568;6.998;2022-12-18T16:39:46;20.60;;;13.17;;
1885;SDS011;943;51.568;6.998;2022-12-18T16:42:16;19.60;;;13.10;;
1885;SDS011;943;51.568;6.998;2022-12-18T16:44:46;21.40;;;13.23;;
1885;SDS011;943;51.568;6.998;2022-12-18T16:47:16;22.27;;;14.37;;
1885;SDS011;943;51.568;6.998;2022-12-18T16:49:45;25.20;;;14.80;;
1885;SDS011;943;51.568;6.998;2022-12-18T16:52:13;26.13;;;15.97;;
1885;SDS011;943;51.568;6.998;2022-12-18T16:54:41;27.20;;;17.07;;
1885;SDS011;943;51.568;6.998;2022-12-18T16:57:10;32.50;;;19.20;;
1885;SDS011;943;51.568;6.998;2022-12-18T16:59:46;39.30;;;20.70;;
1885;SDS011;943;51.568;6.998;2022-12-18T17:04:51;51.57;;;24.50;;
1885;SDS011;943;51.568;6.998;2022-12-18T17:07:23;36.87;;;22.33;;
1885;SDS011;943;51.568;6.998;2022-12-18T17:09:53;34.27;;;20.13;;
1885;SDS011;943;51.568;6.998;2022-12-18T17:12:23;29.70;;;18.50;;
1885;SDS011;943;51.568;6.998;2022-12-18T17:14:52;25.47;;;17.73;;
1885;SDS011;943;51.568;6.998;2022-12-18T17:17:20;28.83;;;17.07;;
1885;SDS011;943;51.568;6.998;2022-12-18T17:19:49;31.30;;;15.93;;
1885;SDS011;943;51.568;6.998;2022-12-18T17:22:19;24.67;;;16.13;;
1885;SDS011;943;51.568;6.998;2022-12-18T17:24:48;21.83;;;14.90;;
1885;SDS011;943;51.568;6.998;2022-12-18T17:27:16;22.33;;;16.03;;
1885;SDS011;943;51.568;6.998;2022-12-18T17:29:44;23.80;;;15.00;;
1885;SDS011;943;51.568;6.998;2022-12-18T17:32:15;20.73;;;14.43;;
1885;SDS011;943;51.568;6.998;2022-12-18T17:34:43;22.43;;;14.37;;
1885;SDS011;943;51.568;6.998;2022-12-18T17:37:12;26.70;;;15.07;;
1885;SDS011;943;51.568;6.998;2022-12-18T17:39:40;22.70;;;14.93;;
1885;SDS011;943;51.568;6.998;2022-12-18T17:42:08;21.27;;;12.53;;
1885;SDS011;943;51.568;6.998;2022-12-18T17:44:40;23.87;;;15.07;;
1885;SDS011;943;51.568;6.998;2022-12-18T17:47:09;23.07;;;15.33;;
1885;SDS011;943;51.568;6.998;2022-12-18T17:49:40;23.30;;;14.33;;
1885;SDS011;943;51.568;6.998;2022-12-18T17:52:09;29.27;;;15.80;;
1885;SDS011;943;51.568;6.998;2022-12-18T17:54:36;23.57;;;14.37;;
1885;SDS011;943;51.568;6.998;2022-12-18T17:57:07;22.50;;;14.33;;
1885;SDS011;943;51.568;6.998;2022-12-18T17:59:35;23.87;;;15.20;;
1885;SDS011;943;51.568;6.998;2022-12-18T18:02:04;24.23;;;15.30;;
1885;SDS011;943;51.568;6.998;2022-12-18T18:04:32;24.00;;;14.93;;
1885;SDS011;943;51.568;6.998;2022-12-18T18:07:00;24.93;;;14.80;;
1885;SDS011;943;51.568;6.998;2022-12-18T18:09:29;20.90;;;14.37;;
1885;SDS011;943;51.568;6.998;2022-12-18T18:11:57;27.00;;;14.73;;